createdAt,value
2019-05-28T00:02:03.591Z,19.40
2019-05-28T00:04:33.878Z,19.40
2019-05-28T00:07:04.267Z,19.40
2019-05-28T00:09:34.554Z,19.40
2019-05-28T00:12:04.927Z,19.40
2019-05-28T00:14:35.215Z,19.50
2019-05-28T00:17:05.523Z,19.40
2019-05-28T00:19:35.812Z,19.40
2019-05-28T00:22:06.113Z,19.40
2019-05-28T00:24:37.471Z,19.40
2019-05-28T00:27:08.909Z,19.30
2019-05-28T00:29:39.273Z,19.30
2019-05-28T00:32:09.578Z,19.30
2019-05-28T00:34:39.873Z,19.30
2019-05-28T00:37:10.174Z,19.20
2019-05-28T00:39:40.471Z,19.20
2019-05-28T00:42:11.106Z,19.20
2019-05-28T00:44:41.395Z,19.10
2019-05-28T00:47:11.770Z,19.10
2019-05-28T00:49:42.055Z,19.10
2019-05-28T00:52:12.739Z,19.10
2019-05-28T00:54:43.027Z,19.10
2019-05-28T00:57:14.278Z,19.00
2019-05-28T00:59:45.814Z,19.10
2019-05-28T01:02:16.119Z,19.10
2019-05-28T01:04:47.471Z,19.10
2019-05-28T01:07:17.882Z,19.10
2019-05-28T01:09:48.171Z,19.10
2019-05-28T01:12:18.481Z,19.10
2019-05-28T01:14:48.945Z,19.10
2019-05-28T01:17:19.250Z,19.10
2019-05-28T01:19:49.547Z,19.00
2019-05-28T01:22:19.845Z,19.00
2019-05-28T01:24:50.144Z,19.00
2019-05-28T01:27:20.434Z,19.00
2019-05-28T01:29:50.752Z,19.00
2019-05-28T01:32:21.038Z,19.00
2019-05-28T01:34:51.337Z,19.00
2019-05-28T01:37:21.634Z,19.00
2019-05-28T01:39:51.932Z,19.10
2019-05-28T01:42:22.219Z,19.10
2019-05-28T01:44:52.524Z,19.10
2019-05-28T01:47:22.820Z,19.10
2019-05-28T01:49:53.121Z,19.10
2019-05-28T01:52:23.413Z,19.10
2019-05-28T01:54:53.717Z,19.10
2019-05-28T01:57:24.010Z,19.10
2019-05-28T01:59:54.313Z,19.10
2019-05-28T02:02:24.615Z,19.10
2019-05-28T02:04:54.945Z,19.10
2019-05-28T02:07:25.232Z,19.20
2019-05-28T02:09:55.537Z,19.20
2019-05-28T02:12:25.836Z,19.20
2019-05-28T02:14:56.142Z,19.20
2019-05-28T02:17:26.435Z,19.20
2019-05-28T02:19:56.730Z,19.20
2019-05-28T02:22:27.030Z,19.30
2019-05-28T02:24:57.332Z,19.30
2019-05-28T02:27:27.630Z,19.30
2019-05-28T02:29:57.929Z,19.20
2019-05-28T02:32:28.216Z,19.20
2019-05-28T02:34:58.520Z,19.10
2019-05-28T02:37:28.809Z,19.00
2019-05-28T02:39:59.116Z,19.00
2019-05-28T02:42:29.425Z,18.90
2019-05-28T02:44:59.723Z,18.80
2019-05-28T02:47:30.019Z,18.80
2019-05-28T02:50:00.321Z,18.70
2019-05-28T02:52:32.024Z,18.70
2019-05-28T02:55:02.711Z,18.60
2019-05-28T02:57:35.578Z,18.60
2019-05-28T03:00:15.365Z,18.60
2019-05-28T03:02:48.765Z,18.60
2019-05-28T03:05:19.207Z,18.60
2019-05-28T03:07:51.331Z,18.50
2019-05-28T03:11:01.730Z,18.50
2019-05-28T03:13:10.427Z,18.60
2019-05-28T03:15:44.992Z,18.60
2019-05-28T03:18:17.700Z,18.60
2019-05-28T03:20:49.176Z,18.60
2019-05-28T03:23:20.230Z,18.60
2019-05-28T03:25:50.535Z,18.60
2019-05-28T03:28:20.823Z,18.60
2019-05-28T03:30:51.128Z,18.60
2019-05-28T03:33:21.417Z,18.60
2019-05-28T03:35:54.931Z,18.60
2019-05-28T03:38:27.248Z,18.60
2019-05-28T03:40:57.534Z,18.60
2019-05-28T03:43:27.822Z,18.60
2019-05-28T03:45:58.195Z,18.60
2019-05-28T03:48:28.489Z,18.60
2019-05-28T03:50:58.790Z,18.60
2019-05-28T03:53:29.079Z,18.60
2019-05-28T03:55:59.379Z,18.60
2019-05-28T03:58:29.682Z,18.70
2019-05-28T04:00:59.980Z,18.70
2019-05-28T04:03:30.450Z,18.70
2019-05-28T04:06:00.748Z,18.70
2019-05-28T04:08:31.035Z,18.70
2019-05-28T04:11:01.329Z,18.70
2019-05-28T04:13:31.617Z,18.70
2019-05-28T04:16:02.007Z,18.70
2019-05-28T04:18:32.305Z,18.80
2019-05-28T04:21:02.608Z,18.80
2019-05-28T04:23:32.909Z,18.80
2019-05-28T04:26:03.221Z,18.80
2019-05-28T04:28:33.507Z,18.80
2019-05-28T04:31:03.964Z,18.90
2019-05-28T04:33:34.257Z,18.90
2019-05-28T04:36:04.558Z,18.80
2019-05-28T04:38:34.857Z,18.80
2019-05-28T04:41:05.154Z,18.80
2019-05-28T04:43:35.446Z,18.90
2019-05-28T04:46:05.925Z,18.90
2019-05-28T04:48:36.202Z,18.90
2019-05-28T04:51:06.504Z,18.90
2019-05-28T04:53:36.794Z,18.90
2019-05-28T04:56:07.099Z,18.90
2019-05-28T04:58:37.386Z,18.90
2019-05-28T05:01:07.690Z,18.90
2019-05-28T05:03:37.983Z,18.90
2019-05-28T05:06:08.286Z,18.90
2019-05-28T05:08:38.580Z,18.90
2019-05-28T05:11:08.907Z,18.90
2019-05-28T05:13:39.193Z,18.90
2019-05-28T05:16:09.507Z,18.90
2019-05-28T05:18:39.801Z,18.90
2019-05-28T05:21:10.159Z,18.90
2019-05-28T05:23:40.455Z,18.90
2019-05-28T05:26:10.759Z,18.90
2019-05-28T05:28:41.045Z,18.80
2019-05-28T05:31:11.432Z,18.80
2019-05-28T05:33:41.758Z,18.80
2019-05-28T05:36:12.056Z,18.80
2019-05-28T05:38:42.360Z,18.80
2019-05-28T05:41:12.657Z,18.90
2019-05-28T05:43:42.942Z,18.90
2019-05-28T05:46:13.245Z,18.90
2019-05-28T05:48:43.531Z,18.90
2019-05-28T05:51:13.827Z,18.90
2019-05-28T05:53:44.122Z,19.00
2019-05-28T05:56:14.459Z,19.00
2019-05-28T05:58:44.753Z,19.00
2019-05-28T06:01:15.102Z,19.00
2019-05-28T06:03:45.396Z,19.10
2019-05-28T06:06:15.685Z,19.10
2019-05-28T06:08:46.049Z,19.10
2019-05-28T06:11:16.346Z,19.10
2019-05-28T06:13:46.644Z,19.10
2019-05-28T06:16:16.932Z,19.10
2019-05-28T06:18:47.290Z,19.10
2019-05-28T06:21:19.132Z,19.10
2019-05-28T06:23:49.534Z,19.10
2019-05-28T06:26:19.834Z,19.20
2019-05-28T06:28:50.142Z,19.20
2019-05-28T06:31:20.452Z,19.20
2019-05-28T06:33:56.982Z,19.20
2019-05-28T06:36:22.758Z,19.20
2019-05-28T06:38:53.066Z,19.20
2019-05-28T06:41:24.333Z,19.30
2019-05-28T06:43:54.644Z,19.30
2019-05-28T06:46:24.974Z,19.30
2019-05-28T06:48:55.261Z,19.30
2019-05-28T06:51:25.560Z,19.30
2019-05-28T06:53:55.874Z,19.40
2019-05-28T06:56:26.176Z,19.40
2019-05-28T06:58:56.483Z,19.40
2019-05-28T07:01:28.653Z,19.50
2019-05-28T07:04:12.679Z,19.50
2019-05-28T07:06:30.795Z,19.50
2019-05-28T07:09:01.101Z,19.50
2019-05-28T07:11:31.765Z,19.50
2019-05-28T07:14:02.078Z,19.50
2019-05-28T07:16:32.378Z,19.50
2019-05-28T07:19:02.680Z,19.50
2019-05-28T07:21:33.945Z,19.50
2019-05-28T07:24:05.175Z,19.50
2019-05-28T07:26:35.579Z,19.50
2019-05-28T07:29:05.880Z,19.50
2019-05-28T07:31:36.173Z,19.50
2019-05-28T07:34:06.468Z,19.50
2019-05-28T07:36:36.767Z,19.50
2019-05-28T07:39:07.598Z,19.50
2019-05-28T07:41:37.889Z,19.50
2019-05-28T07:44:08.195Z,19.50
2019-05-28T07:46:38.486Z,19.60
2019-05-28T07:49:08.835Z,19.50
2019-05-28T07:51:39.094Z,19.60
2019-05-28T07:54:09.480Z,19.50
2019-05-28T07:56:39.889Z,19.60
2019-05-28T07:59:10.188Z,19.60
2019-05-28T08:01:40.491Z,19.60
2019-05-28T08:04:10.791Z,19.60
2019-05-28T08:06:54.165Z,19.60
2019-05-28T08:09:13.088Z,19.60
2019-05-28T08:11:43.377Z,19.60
2019-05-28T08:14:13.680Z,19.60
2019-05-28T08:16:52.335Z,19.60
2019-05-28T08:19:15.980Z,19.70
2019-05-28T08:21:46.268Z,19.70
2019-05-28T08:24:16.574Z,19.70
2019-05-28T08:26:46.871Z,19.70
2019-05-28T08:29:17.186Z,19.70
2019-05-28T08:31:47.475Z,19.80
2019-05-28T08:34:19.538Z,19.80
2019-05-28T08:37:04.513Z,19.80
2019-05-28T08:39:21.906Z,19.90
2019-05-28T08:41:52.258Z,19.90
2019-05-28T08:44:22.636Z,20.00
2019-05-28T08:46:52.992Z,20.00
2019-05-28T08:49:24.022Z,20.00
2019-05-28T08:51:54.573Z,20.00
2019-05-28T08:54:24.873Z,20.10
2019-05-28T08:56:55.231Z,20.10
2019-05-28T08:59:25.565Z,20.10
2019-05-28T09:01:55.861Z,20.10
2019-05-28T09:04:26.163Z,20.10
2019-05-28T09:06:56.524Z,20.10
2019-05-28T09:09:26.830Z,20.10
2019-05-28T09:11:57.114Z,20.10
2019-05-28T09:14:28.505Z,20.20
2019-05-28T09:16:58.844Z,20.20
2019-05-28T09:19:29.181Z,20.20
2019-05-28T09:21:59.476Z,20.20
2019-05-28T09:24:29.803Z,20.20
2019-05-28T09:27:00.110Z,20.20
2019-05-28T09:29:30.398Z,20.30
2019-05-28T09:32:00.706Z,20.30
2019-05-28T09:34:30.992Z,20.30
2019-05-28T09:37:01.293Z,20.30
2019-05-28T09:39:31.599Z,20.40
2019-05-28T09:42:01.891Z,20.40
2019-05-28T09:44:32.189Z,20.40
2019-05-28T09:47:02.491Z,20.40
2019-05-28T09:49:32.791Z,20.40
2019-05-28T09:52:03.088Z,20.40
2019-05-28T09:54:33.421Z,20.40
2019-05-28T09:57:04.506Z,20.40
2019-05-28T09:59:41.643Z,20.40
2019-05-28T10:02:06.959Z,20.40
2019-05-28T10:04:47.726Z,20.40
2019-05-28T10:07:09.410Z,20.50
2019-05-28T10:09:39.818Z,20.50
2019-05-28T10:12:10.118Z,20.50
2019-05-28T10:14:40.404Z,20.50
2019-05-28T10:17:10.702Z,20.50
2019-05-28T10:19:40.994Z,20.50
2019-05-28T10:22:11.292Z,20.60
2019-05-28T10:24:41.595Z,20.60
2019-05-28T10:27:11.898Z,20.60
2019-05-28T10:29:42.181Z,20.60
2019-05-28T10:32:13.567Z,20.60
2019-05-28T10:35:00.013Z,20.60
2019-05-28T10:37:15.871Z,20.60
2019-05-28T10:39:46.189Z,20.60
2019-05-28T10:42:17.428Z,20.60
2019-05-28T10:44:47.721Z,20.60
2019-05-28T10:47:18.022Z,20.60
2019-05-28T10:49:50.844Z,20.60
2019-05-28T10:52:20.333Z,20.60
2019-05-28T10:54:50.616Z,20.60
2019-05-28T10:57:20.947Z,20.60
2019-05-28T10:59:51.296Z,20.60
2019-05-28T11:02:21.672Z,20.60
2019-05-28T11:04:52.027Z,20.60
2019-05-28T11:07:22.313Z,20.50
2019-05-28T11:09:52.598Z,20.50
2019-05-28T11:12:22.907Z,20.50
2019-05-28T11:14:53.193Z,20.50
2019-05-28T11:17:23.497Z,20.50
2019-05-28T11:19:53.795Z,20.50
2019-05-28T11:22:24.090Z,20.50
2019-05-28T11:24:54.390Z,20.50
2019-05-28T11:27:24.710Z,20.50
2019-05-28T11:29:55.002Z,20.50
2019-05-28T11:32:25.288Z,20.50
2019-05-28T11:34:55.585Z,20.50
2019-05-28T11:37:25.877Z,20.60
2019-05-28T11:39:56.336Z,20.60
2019-05-28T11:42:26.635Z,20.60
2019-05-28T11:44:56.932Z,20.60
2019-05-28T11:47:27.262Z,20.60
2019-05-28T11:49:57.862Z,20.60
2019-05-28T11:52:28.223Z,20.70
2019-05-28T11:54:58.460Z,20.70
2019-05-28T11:57:28.758Z,20.70
2019-05-28T11:59:59.046Z,20.80
2019-05-28T12:02:29.378Z,20.80
2019-05-28T12:04:59.651Z,20.80
2019-05-28T12:07:29.963Z,20.80
2019-05-28T12:10:00.267Z,20.90
2019-05-28T12:12:30.640Z,20.90
2019-05-28T12:15:00.999Z,20.90
2019-05-28T12:17:42.605Z,20.90
2019-05-28T12:20:07.264Z,20.90
2019-05-28T12:22:37.557Z,20.90
2019-05-28T12:25:10.243Z,20.90
2019-05-28T12:27:40.778Z,20.90
2019-05-28T12:30:17.964Z,20.90
2019-05-28T12:32:46.283Z,20.90
2019-05-28T12:35:28.179Z,20.90
2019-05-28T12:37:50.620Z,20.90
2019-05-28T12:40:22.156Z,20.90
2019-05-28T12:42:52.458Z,20.90
2019-05-28T12:45:35.167Z,20.90
2019-05-28T12:48:09.793Z,20.90
2019-05-28T12:50:28.107Z,20.90
2019-05-28T12:52:58.402Z,20.90
2019-05-28T12:55:28.687Z,20.90
2019-05-28T12:57:59.071Z,20.90
2019-05-28T13:00:48.768Z,20.90
2019-05-28T13:03:19.070Z,20.90
2019-05-28T13:05:49.372Z,21.00
2019-05-28T13:08:19.660Z,21.00
2019-05-28T13:10:50.902Z,21.00
2019-05-28T13:13:21.203Z,21.00
2019-05-28T13:15:51.496Z,21.00
2019-05-28T13:18:21.824Z,21.00
2019-05-28T13:20:52.123Z,20.90
2019-05-28T13:23:22.424Z,20.90
2019-05-28T13:25:52.707Z,20.90
2019-05-28T13:28:23.353Z,20.90
2019-05-28T13:30:53.647Z,20.90
2019-05-28T13:33:23.947Z,20.90
2019-05-28T13:35:54.241Z,20.90
2019-05-28T13:38:27.483Z,20.90
2019-05-28T13:40:56.524Z,20.90
2019-05-28T13:43:26.825Z,20.90
2019-05-28T13:45:57.111Z,20.90
2019-05-28T13:48:27.569Z,20.90
2019-05-28T13:50:57.824Z,20.90
2019-05-28T13:53:28.112Z,20.90
2019-05-28T13:55:58.407Z,20.90
2019-05-28T13:58:28.699Z,20.90
2019-05-28T14:00:59.005Z,20.90
2019-05-28T14:03:29.300Z,20.90
2019-05-28T14:05:59.583Z,20.90
2019-05-28T14:08:44.742Z,20.90
2019-05-28T14:11:01.872Z,20.90
2019-05-28T14:13:32.179Z,20.90
2019-05-28T14:16:04.112Z,20.90
2019-05-28T14:18:56.137Z,20.90
2019-05-28T14:21:27.413Z,20.80
2019-05-28T14:23:57.702Z,20.80
2019-05-28T14:26:28.002Z,20.70
2019-05-28T14:28:58.299Z,20.70
2019-05-28T14:31:28.592Z,20.70
2019-05-28T14:33:58.893Z,20.60
2019-05-28T14:36:29.178Z,20.60
2019-05-28T14:39:03.656Z,20.50
2019-05-28T14:41:31.739Z,20.50
2019-05-28T14:44:20.276Z,20.40
2019-05-28T14:46:46.086Z,20.40
2019-05-28T14:49:16.394Z,20.40
2019-05-28T14:51:46.680Z,20.40
2019-05-28T14:54:16.995Z,20.30
2019-05-28T14:56:47.280Z,20.30
2019-05-28T14:59:17.582Z,20.30
2019-05-28T15:01:47.904Z,20.20
2019-05-28T15:04:18.253Z,20.20
2019-05-28T15:06:48.549Z,20.10
2019-05-28T15:09:21.351Z,20.10
2019-05-28T15:11:50.967Z,20.00
2019-05-28T15:14:21.234Z,20.00
2019-05-28T15:16:51.561Z,20.00
2019-05-28T15:19:21.844Z,19.90
2019-05-28T15:21:52.147Z,19.90
2019-05-28T15:24:22.509Z,19.90
2019-05-28T15:26:52.803Z,19.80
2019-05-28T15:29:23.105Z,19.80
2019-05-28T15:31:53.408Z,19.80
2019-05-28T15:34:23.701Z,19.80
2019-05-28T15:36:53.996Z,19.80
2019-05-28T15:39:39.229Z,19.70
2019-05-28T15:41:56.289Z,19.70
2019-05-28T15:44:26.588Z,19.60
2019-05-28T15:46:56.882Z,19.60
2019-05-28T15:49:27.182Z,19.60
2019-05-28T15:52:07.216Z,19.60
2019-05-28T15:54:29.465Z,19.60
2019-05-28T15:56:59.778Z,19.60
2019-05-28T15:59:30.065Z,19.60
2019-05-28T16:02:00.354Z,19.60
2019-05-28T16:04:30.665Z,19.60
2019-05-28T16:07:00.944Z,19.60
2019-05-28T16:09:31.233Z,19.50
2019-05-28T16:12:01.532Z,19.50
2019-05-28T16:14:31.826Z,19.50
2019-05-28T16:17:04.993Z,19.50
2019-05-28T16:19:35.269Z,19.50
2019-05-28T16:22:05.574Z,19.50
2019-05-28T16:24:35.864Z,19.50
2019-05-28T16:27:06.303Z,19.50
2019-05-28T16:29:37.558Z,19.50
2019-05-28T16:32:07.863Z,19.40
2019-05-28T16:34:38.198Z,19.40
2019-05-28T16:37:08.621Z,19.40
2019-05-28T16:39:38.898Z,19.40
2019-05-28T16:42:09.212Z,19.40
2019-05-28T16:44:39.766Z,19.40
2019-05-28T16:47:17.740Z,19.30
2019-05-28T16:49:42.107Z,19.30
2019-05-28T16:52:12.413Z,19.30
2019-05-28T16:54:42.696Z,19.30
2019-05-28T16:57:12.998Z,19.30
2019-05-28T16:59:43.288Z,19.30
2019-05-28T17:02:13.591Z,19.30
2019-05-28T17:04:43.889Z,19.30
2019-05-28T17:07:14.193Z,19.20
2019-05-28T17:09:44.486Z,19.20
2019-05-28T17:12:14.794Z,19.20
2019-05-28T17:14:45.073Z,19.20
2019-05-28T17:17:15.380Z,19.20
2019-05-28T17:19:45.745Z,19.20
2019-05-28T17:22:16.038Z,19.30
2019-05-28T17:24:46.917Z,19.30
2019-05-28T17:27:17.406Z,19.30
2019-05-28T17:29:50.548Z,19.30
2019-05-28T17:32:19.729Z,19.30
2019-05-28T17:34:50.015Z,19.30
2019-05-28T17:37:20.317Z,19.30
2019-05-28T17:39:51.585Z,19.20
2019-05-28T17:42:21.880Z,19.20
2019-05-28T17:44:52.171Z,19.20
2019-05-28T17:47:22.472Z,19.20
2019-05-28T17:49:52.769Z,19.20
2019-05-28T17:52:23.065Z,19.20
2019-05-28T17:54:53.362Z,19.20
2019-05-28T17:57:23.669Z,19.20
2019-05-28T17:59:53.964Z,19.20
2019-05-28T18:02:24.263Z,19.20
2019-05-28T18:04:54.565Z,19.20
2019-05-28T18:07:24.859Z,19.20
2019-05-28T18:09:55.151Z,19.10
2019-05-28T18:12:25.443Z,19.10
2019-05-28T18:14:55.726Z,19.10
2019-05-28T18:17:27.001Z,19.10
2019-05-28T18:19:57.283Z,19.10
2019-05-28T18:22:28.560Z,19.10
2019-05-28T18:24:58.852Z,19.10
2019-05-28T18:27:29.522Z,19.10
2019-05-28T18:29:59.809Z,19.10
2019-05-28T18:32:30.111Z,19.10
2019-05-28T18:35:00.479Z,19.00
2019-05-28T18:37:30.785Z,19.00
2019-05-28T18:40:01.098Z,19.00
2019-05-28T18:42:32.368Z,19.00
2019-05-28T18:45:02.656Z,19.00
2019-05-28T18:47:33.025Z,19.00
2019-05-28T18:50:05.053Z,19.00
2019-05-28T18:52:35.355Z,19.00
2019-05-28T18:55:08.464Z,18.90
2019-05-28T18:57:38.835Z,18.90
2019-05-28T19:00:10.405Z,18.90
2019-05-28T19:02:41.074Z,18.90
2019-05-28T19:05:11.570Z,18.90
2019-05-28T19:07:41.947Z,18.80
2019-05-28T19:10:12.372Z,18.80
2019-05-28T19:12:42.671Z,18.80
2019-05-28T19:15:13.314Z,18.70
2019-05-28T19:17:43.605Z,18.70
2019-05-28T19:20:14.417Z,18.70
2019-05-28T19:22:44.704Z,18.70
2019-05-28T19:25:15.441Z,18.60
2019-05-28T19:27:45.735Z,18.60
2019-05-28T19:30:19.380Z,18.60
2019-05-28T19:32:49.741Z,18.60
2019-05-28T19:35:20.017Z,18.50
2019-05-28T19:37:50.409Z,18.50
2019-05-28T19:40:39.269Z,18.50
2019-05-28T19:43:09.530Z,18.50
2019-05-28T19:45:39.789Z,18.40
2019-05-28T19:48:10.187Z,18.40
2019-05-28T19:50:40.442Z,18.40
2019-05-28T19:53:11.474Z,18.40
2019-05-28T19:55:42.273Z,18.30
2019-05-28T19:58:12.534Z,18.30
2019-05-28T20:00:42.863Z,18.30
2019-05-28T20:03:13.260Z,18.30
2019-05-28T20:05:43.520Z,18.30
2019-05-28T20:08:13.770Z,18.20
2019-05-28T20:10:44.036Z,18.20
2019-05-28T20:13:14.296Z,18.20
2019-05-28T20:15:44.549Z,18.10
2019-05-28T20:18:26.428Z,18.10
2019-05-28T20:20:47.540Z,18.10
2019-05-28T20:23:18.905Z,18.10
2019-05-28T20:25:51.497Z,18.00
2019-05-28T20:28:21.154Z,18.00
2019-05-28T20:30:52.486Z,18.00
2019-05-28T20:33:22.748Z,18.00
2019-05-28T20:35:53.007Z,18.00
2019-05-28T20:38:23.267Z,17.90
2019-05-28T20:40:53.532Z,17.90
2019-05-28T20:43:24.852Z,17.90
2019-05-28T20:45:55.111Z,17.90
2019-05-28T20:48:25.367Z,17.90
2019-05-28T20:51:07.886Z,17.80
2019-05-28T20:53:36.125Z,17.80
2019-05-28T20:55:59.538Z,17.80
2019-05-28T20:58:39.858Z,17.80
2019-05-28T21:01:01.774Z,17.80
2019-05-28T21:03:32.018Z,17.70
2019-05-28T21:06:02.267Z,17.70
2019-05-28T21:08:32.528Z,17.70
2019-05-28T21:11:03.862Z,17.70
2019-05-28T21:13:34.117Z,17.70
2019-05-28T21:16:04.379Z,17.70
2019-05-28T21:18:34.632Z,17.60
2019-05-28T21:21:05.042Z,17.70
2019-05-28T21:23:35.288Z,17.60
2019-05-28T21:26:05.550Z,17.70
2019-05-28T21:28:35.807Z,17.70
2019-05-28T21:31:06.070Z,17.70
2019-05-28T21:33:36.328Z,17.70
2019-05-28T21:36:06.578Z,17.70
2019-05-28T21:38:36.898Z,17.70
2019-05-28T21:41:07.172Z,17.70
2019-05-28T21:43:37.410Z,17.70
2019-05-28T21:46:08.736Z,17.70
2019-05-28T21:48:38.992Z,17.70
2019-05-28T21:51:09.255Z,17.70
2019-05-28T21:53:39.850Z,17.70
2019-05-28T21:56:10.116Z,17.70
2019-05-28T21:58:40.367Z,17.70
2019-05-28T22:01:18.401Z,17.70
2019-05-28T22:03:48.790Z,17.70
2019-05-28T22:06:19.063Z,17.70
2019-05-28T22:08:49.300Z,17.60
2019-05-28T22:11:19.557Z,17.70
2019-05-28T22:13:49.809Z,17.70
2019-05-28T22:16:20.067Z,17.70
2019-05-28T22:18:50.317Z,17.70
2019-05-28T22:21:20.575Z,17.70
2019-05-28T22:23:51.138Z,17.70
2019-05-28T22:26:21.401Z,17.70
2019-05-28T22:28:51.652Z,17.70
2019-05-28T22:31:21.922Z,17.70
2019-05-28T22:33:52.178Z,17.70
2019-05-28T22:36:22.437Z,17.70
2019-05-28T22:39:08.934Z,17.70
2019-05-28T22:41:41.638Z,17.70
2019-05-28T22:44:12.064Z,17.70
2019-05-28T22:46:42.406Z,17.70
2019-05-28T22:49:12.654Z,17.70
2019-05-28T22:51:42.984Z,17.70
2019-05-28T22:54:13.231Z,17.70
2019-05-28T22:56:43.927Z,17.70
2019-05-28T22:59:14.177Z,17.70
2019-05-28T23:01:44.447Z,17.70
2019-05-28T23:04:14.715Z,17.70
2019-05-28T23:06:44.961Z,17.70
2019-05-28T23:09:15.215Z,17.70
2019-05-28T23:11:45.474Z,17.70
2019-05-28T23:14:15.733Z,17.70
2019-05-28T23:16:45.998Z,17.70
2019-05-28T23:19:16.617Z,17.60
2019-05-28T23:21:46.901Z,17.60
2019-05-28T23:24:17.156Z,17.60
2019-05-28T23:26:47.422Z,17.60
2019-05-28T23:29:17.681Z,17.60
2019-05-28T23:31:47.942Z,17.60
2019-05-28T23:34:18.273Z,17.60
2019-05-28T23:36:48.524Z,17.60
2019-05-28T23:39:18.930Z,17.60
2019-05-28T23:41:49.192Z,17.60
2019-05-28T23:44:19.521Z,17.60
2019-05-28T23:46:49.775Z,17.60
2019-05-28T23:49:20.050Z,17.60
2019-05-28T23:51:50.286Z,17.60
2019-05-28T23:54:20.552Z,17.60
2019-05-28T23:56:50.808Z,17.60
2019-05-28T23:59:21.072Z,17.60
